Time;durP1;ratioP1;P1;durP2;ratioP2;P2;SDS_P1;SDS_P2;PMS_P1;PMS_P2;Temp;Humidity;BMP_temperature;BMP_pressure;BME280_temperature;BME280_humidity;BME280_pressure;Samples;Min_cycle;Max_cycle;Signal;HPM_P1;HPM_P2
2023/02/15 00:01:11;;;;;;;81.05;41.17;;;;;;;-0.41;99.63;102132.06;5043471;28;20052;-66
2023/02/15 00:03:37;;;;;;;83.00;39.40;;;;;;;-0.43;99.51;102141.75;5033140;28;20072;-66
2023/02/15 00:06:04;;;;;;;83.93;41.13;;;;;;;-0.54;99.38;102125.22;5022649;28;20049;-66
2023/02/15 00:08:30;;;;;;;79.40;39.30;;;;;;;-0.61;99.50;102120.94;5027180;28;20044;-66
2023/02/15 00:11:09;;;;;;;80.35;38.90;;;;;;;-0.46;99.43;102147.06;5037195;28;20041;-66
2023/02/15 00:13:36;;;;;;;82.80;41.92;;;;;;;-0.78;99.39;102093.94;5036641;28;20040;-66
2023/02/15 00:16:07;;;;;;;82.22;40.65;;;;;;;-0.51;99.53;102151.53;5029233;28;20034;-67
2023/02/15 00:18:32;;;;;;;82.97;42.83;;;;;;;-0.63;99.68;102127.97;5036704;28;20369;-65
2023/02/15 00:21:02;;;;;;;83.57;39.88;;;;;;;-0.62;99.67;102129.72;5032308;28;20028;-65
2023/02/15 00:23:28;;;;;;;84.95;39.95;;;;;;;-0.53;99.56;102145.41;5030865;28;20104;-65
2023/02/15 00:26:09;;;;;;;80.32;40.55;;;;;;;-0.72;99.86;102113.16;5030246;28;20113;-65
2023/02/15 00:28:35;;;;;;;77.80;37.63;;;;;;;-0.59;100.00;102127.03;5026599;28;20479;-65
2023/02/15 00:31:12;;;;;;;81.45;40.90;;;;;;;-0.52;100.00;102148.03;5042301;28;20047;-66
2023/02/15 00:33:38;;;;;;;78.60;38.63;;;;;;;-0.64;100.00;102120.97;5035644;28;20025;-66
2023/02/15 00:36:06;;;;;;;76.28;37.67;;;;;;;-0.52;100.00;102139.22;5036871;28;20422;-66
2023/02/15 00:38:32;;;;;;;76.43;37.40;;;;;;;-0.52;100.00;102140.13;5036514;28;20021;-66
2023/02/15 00:41:00;;;;;;;71.70;36.40;;;;;;;-0.52;100.00;102137.47;5026072;28;20450;-66
2023/02/15 00:43:26;;;;;;;72.72;37.72;;;;;;;-0.54;100.00;102133.97;5033466;28;20490;-66
2023/02/15 00:45:52;;;;;;;76.38;37.00;;;;;;;-0.67;100.00;102110.47;5027750;28;20035;-66
2023/02/15 00:48:19;;;;;;;77.38;37.60;;;;;;;-0.63;100.00;102112.16;5035048;28;20527;-66
2023/02/15 00:50:46;;;;;;;79.30;36.95;;;;;;;-0.53;100.00;102129.59;5028774;28;20075;-66
2023/02/15 00:53:11;;;;;;;71.78;35.85;;;;;;;-0.63;100.00;102117.44;5027228;28;20061;-67
2023/02/15 00:55:39;;;;;;;72.65;38.00;;;;;;;-0.67;100.00;102113.13;5028414;28;20503;-65
2023/02/15 00:58:04;;;;;;;77.90;36.72;;;;;;;-0.56;100.00;102129.63;5035510;28;20061;-65
2023/02/15 01:00:29;;;;;;;74.20;36.72;;;;;;;-0.69;100.00;102107.88;5032160;28;20059;-66
2023/02/15 01:02:55;;;;;;;77.28;35.33;;;;;;;-0.61;100.00;102120.94;5027608;28;20498;-66
2023/02/15 01:05:20;;;;;;;75.60;35.75;;;;;;;-0.67;100.00;102113.97;5029537;28;20479;-66
2023/02/15 01:07:46;;;;;;;76.50;36.78;;;;;;;-0.91;100.00;102073.91;5028177;28;20478;-66
2023/02/15 01:10:11;;;;;;;75.55;37.83;;;;;;;-0.64;100.00;102116.56;5028648;28;20284;-66
2023/02/15 01:12:36;;;;;;;77.50;37.05;;;;;;;-0.73;100.00;102103.53;5029861;28;20029;-66
2023/02/15 01:15:02;;;;;;;79.82;39.13;;;;;;;-0.80;100.00;102101.00;5026357;28;20056;-67
2023/02/15 01:17:28;;;;;;;85.53;41.60;;;;;;;-0.87;100.00;102089.66;5024382;28;20052;-66
2023/02/15 01:19:53;;;;;;;86.45;40.97;;;;;;;-0.78;100.00;102110.63;5022609;28;20029;-66
2023/02/15 01:22:19;;;;;;;83.13;38.95;;;;;;;-0.70;100.00;102124.56;5026262;28;20476;-66
2023/02/15 01:24:45;;;;;;;87.97;41.88;;;;;;;-0.89;100.00;102086.19;5032823;28;20037;-67
2023/02/15 01:27:10;;;;;;;81.07;39.17;;;;;;;-0.72;100.00;102126.34;5030033;28;20025;-65
2023/02/15 01:29:36;;;;;;;85.53;40.53;;;;;;;-0.74;100.00;102114.94;5032887;28;20033;-65
2023/02/15 01:32:01;;;;;;;85.80;41.25;;;;;;;-1.03;100.00;102068.81;5028289;28;20033;-65
2023/02/15 01:34:29;;;;;;;85.75;41.22;;;;;;;-0.87;100.00;102097.56;5027361;28;20418;-66
2023/02/15 01:36:54;;;;;;;84.47;39.15;;;;;;;-0.76;100.00;102121.13;5024221;28;20428;-67
2023/02/15 01:39:20;;;;;;;79.93;38.92;;;;;;;-0.77;100.00;102132.56;5028768;28;20108;-72
2023/02/15 01:41:45;;;;;;;80.85;38.13;;;;;;;-0.82;100.00;102127.34;5035608;28;20041;-72
2023/02/15 01:44:51;;;;;;;83.97;40.88;;;;;;;-0.80;100.00;102124.69;5029710;28;20029;-72
2023/02/15 01:47:43;;;;;;;83.05;40.53;;;;;;;-0.84;100.00;102107.22;4962082;28;20046;-73
2023/02/15 01:50:22;;;;;;;82.45;38.13;;;;;;;-0.76;100.00;102121.13;5028374;28;20076;-72
2023/02/15 01:52:53;;;;;;;88.38;40.15;;;;;;;-0.77;100.00;102124.66;5027678;28;20026;-65
2023/02/15 01:55:21;;;;;;;83.78;40.13;;;;;;;-0.87;100.00;102108.09;5030650;28;20025;-65
2023/02/15 01:57:47;;;;;;;84.75;39.83;;;;;;;-0.84;100.00;102115.09;5030033;28;20756;-66
2023/02/15 02:00:14;;;;;;;81.60;39.50;;;;;;;-0.84;100.00;102120.38;5031088;28;20056;-66
2023/02/15 02:02:44;;;;;;;80.97;39.80;;;;;;;-1.03;100.00;102090.75;5026290;28;20051;-65
2023/02/15 02:05:10;;;;;;;92.03;43.85;;;;;;;-0.91;100.00;102101.13;5025864;28;20180;-67
2023/02/15 02:07:43;;;;;;;89.63;41.03;;;;;;;-0.87;100.00;102128.31;5025065;28;20144;-66
2023/02/15 02:10:12;;;;;;;81.27;40.97;;;;;;;-1.13;100.00;102083.00;5029720;28;20033;-66
2023/02/15 02:12:40;;;;;;;93.07;44.17;;;;;;;-0.93;100.00;102123.13;5024387;28;20048;-66
2023/02/15 02:15:06;;;;;;;80.82;39.83;;;;;;;-1.01;100.00;102103.88;5029663;28;20152;-66
2023/02/15 02:17:47;;;;;;;83.80;42.45;;;;;;;-0.93;100.00;102117.84;5030819;28;20045;-66
2023/02/15 02:20:20;;;;;;;82.35;40.55;;;;;;;-0.93;100.00;102123.97;5026662;28;20777;-66
2023/02/15 02:23:10;;;;;;;81.35;42.17;;;;;;;-0.95;100.00;102119.63;5026429;28;20112;-66
2023/02/15 02:25:35;;;;;;;89.40;42.25;;;;;;;-0.94;100.00;102118.72;5055220;28;20460;-66
2023/02/15 02:28:22;;;;;;;82.40;39.45;;;;;;;-0.98;100.00;102111.75;5025347;28;20087;-66
2023/02/15 02:31:22;;;;;;;91.93;40.92;;;;;;;-1.04;100.00;102102.16;5032192;28;20505;-65
2023/02/15 02:34:15;;;;;;;83.40;41.22;;;;;;;-1.08;100.00;102115.38;5024206;28;20037;-72
2023/02/15 02:36:58;;;;;;;85.03;39.97;;;;;;;-1.14;100.00;102104.91;5026584;28;20049;-72
2023/02/15 02:39:41;;;;;;;89.63;40.88;;;;;;;-1.17;100.00;102123.38;5034127;28;20114;-73
2023/02/15 02:42:19;;;;;;;90.60;42.47;;;;;;;-1.27;100.00;102108.59;5028734;28;20048;-72
2023/02/15 02:44:54;;;;;;;90.78;42.08;;;;;;;-1.32;100.00;102116.53;5039793;28;20028;-73
2023/02/15 02:47:29;;;;;;;85.45;40.92;;;;;;;-1.33;100.00;102111.28;5034756;28;20033;-72
2023/02/15 02:50:02;;;;;;;90.60;40.75;;;;;;;-1.34;100.00;102112.19;5032462;28;20446;-72
2023/02/15 02:52:36;;;;;;;94.32;41.50;;;;;;;-1.34;100.00;102117.44;5029894;28;20025;-72
2023/02/15 02:55:17;;;;;;;86.90;40.17;;;;;;;-1.45;100.00;102106.16;5035099;28;20025;-72
2023/02/15 02:58:07;;;;;;;89.45;40.53;;;;;;;-1.42;100.00;102114.03;5044498;28;20535;-72
2023/02/15 03:00:37;;;;;;;78.35;37.75;;;;;;;-1.48;100.00;102111.47;5037114;28;20113;-72
2023/02/15 03:03:14;;;;;;;84.95;40.80;;;;;;;-1.45;100.00;102125.44;5033953;28;20033;-72
2023/02/15 03:05:46;;;;;;;87.35;39.13;;;;;;;-1.48;100.00;102121.97;5027174;28;20033;-72
2023/02/15 03:08:21;;;;;;;80.78;38.10;;;;;;;-1.52;99.78;102118.50;5041558;28;20041;-72
2023/02/15 03:10:47;;;;;;;81.32;39.13;;;;;;;-1.55;99.25;102115.91;5033661;28;20033;-72
2023/02/15 03:13:13;;;;;;;83.97;40.63;;;;;;;-1.57;99.24;102115.06;5040624;28;20033;-71
2023/02/15 03:18:33;;;;;;;79.82;39.22;;;;;;;-1.60;99.58;102116.84;5022922;28;20135;-65
2023/02/15 03:21:01;;;;;;;82.47;37.47;;;;;;;-1.67;99.56;102115.16;5039966;28;20032;-65
2023/02/15 03:23:30;;;;;;;81.10;39.25;;;;;;;-1.78;99.59;102096.00;5034817;28;20037;-65
2023/02/15 03:26:03;;;;;;;83.10;39.60;;;;;;;-1.78;99.35;102093.34;5037432;28;20032;-65
2023/02/15 03:28:38;;;;;;;64.50;29.47;;;;;;;-1.77;99.25;102109.13;5034924;28;20041;-65
2023/02/15 03:31:07;;;;;;;88.82;39.55;;;;;;;-1.88;99.11;102083.78;5039210;28;20200;-65
2023/02/15 03:33:38;;;;;;;89.30;39.65;;;;;;;-1.72;99.03;102111.69;5032859;28;20026;-66
2023/02/15 03:36:29;;;;;;;87.90;40.30;;;;;;;-1.75;99.35;102112.59;5035109;28;20038;-66
2023/02/15 03:39:02;;;;;;;81.97;38.67;;;;;;;-1.76;98.51;102120.50;5012733;28;20061;-66
2023/02/15 03:41:34;;;;;;;87.68;40.63;;;;;;;-1.90;98.79;102098.72;5034414;28;20580;-66
2023/02/15 03:44:15;;;;;;;82.10;38.78;;;;;;;-1.88;98.26;102113.59;5043118;28;20505;-67
2023/02/15 03:46:49;;;;;;;83.38;40.30;;;;;;;-1.87;98.37;102109.22;5021631;28;20025;-67
2023/02/15 03:49:23;;;;;;;81.72;38.40;;;;;;;-1.89;98.02;102118.84;5025965;28;20025;-67
2023/02/15 03:51:52;;;;;;;85.10;40.25;;;;;;;-2.11;98.13;102083.09;5026870;28;20372;-66
2023/02/15 04:03:05;;;;;;;82.63;38.85;;;;;;;-1.99;97.01;102112.81;5028537;28;20537;-66
2023/02/15 04:05:30;;;;;;;80.45;37.95;;;;;;;-2.25;97.16;102066.59;5036323;28;20025;-67
2023/02/15 04:07:56;;;;;;;75.75;37.38;;;;;;;-2.08;97.02;102096.22;5029657;28;20558;-67
2023/02/15 04:13:05;;;;;;;80.97;37.33;;;;;;;-2.13;97.28;102095.41;5031508;28;20044;-67
2023/02/15 04:18:14;;;;;;;77.80;36.80;;;;;;;-2.10;96.81;102111.16;5024087;28;20087;-66
2023/02/15 04:26:11;;;;;;;86.57;38.00;;;;;;;-2.29;97.00;102088.53;5032621;28;20044;-73
2023/02/15 04:28:37;;;;;;;83.13;37.60;;;;;;;-2.17;97.16;102115.56;5034338;28;20116;-73
2023/02/15 04:31:02;;;;;;;83.05;37.58;;;;;;;-2.23;96.33;102112.13;5031013;28;20846;-73
2023/02/15 04:33:28;;;;;;;84.55;38.30;;;;;;;-2.29;96.46;102107.78;5030054;28;20048;-73
2023/02/15 04:35:53;;;;;;;85.25;38.20;;;;;;;-2.24;96.35;102124.38;5039417;28;20049;-73
2023/02/15 04:38:19;;;;;;;78.72;37.45;;;;;;;-2.29;96.48;102113.03;5036879;28;20028;-73
2023/02/15 04:40:44;;;;;;;82.32;38.65;;;;;;;-2.31;96.70;102117.44;5034774;28;20032;-73
2023/02/15 04:43:09;;;;;;;79.55;36.45;;;;;;;-2.33;97.07;102120.06;5028705;28;20119;-74
2023/02/15 04:45:35;;;;;;;83.80;38.53;;;;;;;-2.36;96.34;102122.72;5039281;28;20048;-73
2023/02/15 04:48:00;;;;;;;81.05;36.92;;;;;;;-2.37;96.55;102131.50;5035444;28;20025;-73
2023/02/15 04:50:26;;;;;;;81.82;39.15;;;;;;;-2.41;96.44;102127.13;5027849;28;20033;-71
2023/02/15 04:52:51;;;;;;;84.90;39.42;;;;;;;-2.40;96.86;102128.88;5028979;28;20021;-72
2023/02/15 04:55:17;;;;;;;82.95;35.55;;;;;;;-2.44;97.04;102128.91;5027650;28;20056;-72
2023/02/15 04:57:42;;;;;;;84.32;39.60;;;;;;;-2.40;96.75;102135.88;5039021;28;20029;-72
2023/02/15 05:00:08;;;;;;;81.50;38.78;;;;;;;-2.45;96.86;102132.44;5042286;28;20041;-71
2023/02/15 05:02:34;;;;;;;76.20;36.05;;;;;;;-2.46;97.04;102130.66;5037717;28;20025;-72
2023/02/15 05:04:59;;;;;;;80.32;38.83;;;;;;;-2.54;96.57;102119.34;5031037;28;20048;-65
2023/02/15 05:07:25;;;;;;;80.35;36.47;;;;;;;-2.54;97.05;102117.56;5029903;28;20029;-67
2023/02/15 05:09:50;;;;;;;89.45;39.15;;;;;;;-2.69;96.97;102094.03;5031672;28;20112;-67
2023/02/15 05:12:16;;;;;;;81.78;38.05;;;;;;;-2.50;96.62;102135.06;5035640;28;20107;-65
2023/02/15 05:14:41;;;;;;;78.95;35.90;;;;;;;-2.62;96.44;102115.88;5028953;28;20153;-66
2023/02/15 05:17:06;;;;;;;86.00;38.72;;;;;;;-2.53;96.55;102127.22;5040155;28;20047;-67
2023/02/15 05:19:32;;;;;;;86.97;39.30;;;;;;;-2.54;96.13;102129.84;5030240;28;20471;-66
2023/02/15 05:21:58;;;;;;;78.55;38.47;;;;;;;-2.60;96.04;102122.00;5039416;28;20033;-67
2023/02/15 05:29:54;;;;;;;86.78;36.72;;;;;;;-2.67;96.22;102126.41;5029147;28;19970;-66
2023/02/15 05:32:19;;;;;;;84.07;37.10;;;;;;;-2.64;96.40;102133.41;5042525;28;20048;-65
2023/02/15 05:34:45;;;;;;;87.35;37.67;;;;;;;-2.62;96.35;102139.50;5034324;28;20029;-64
2023/02/15 05:37:10;;;;;;;84.32;39.53;;;;;;;-2.72;96.61;102124.69;5029670;28;20443;-66
2023/02/15 05:39:36;;;;;;;89.70;38.75;;;;;;;-2.68;96.40;102136.91;5039224;28;20040;-66
2023/02/15 05:42:01;;;;;;;90.28;40.45;;;;;;;-2.63;96.65;102140.41;5035123;28;20021;-66
2023/02/15 05:44:27;;;;;;;91.72;41.53;;;;;;;-2.74;97.14;102122.06;5036040;28;20518;-67
2023/02/15 05:46:52;;;;;;;90.05;41.58;;;;;;;-2.75;96.85;102128.19;5034174;28;20056;-66
2023/02/15 05:49:18;;;;;;;94.80;40.78;;;;;;;-2.68;97.03;102144.78;5033993;28;20179;-66
2023/02/15 05:51:43;;;;;;;98.45;45.08;;;;;;;-2.78;96.52;102133.47;5041360;28;20071;-67
2023/02/15 05:54:08;;;;;;;97.68;42.58;;;;;;;-2.74;97.33;102145.69;5027355;28;20561;-66
2023/02/15 05:56:34;;;;;;;102.63;42.75;;;;;;;-3.04;96.97;102090.72;5038031;28;20510;-66
2023/02/15 05:58:59;;;;;;;101.10;43.22;;;;;;;-2.72;97.12;102157.06;5027815;28;20047;-65
2023/02/15 06:01:25;;;;;;;103.20;43.97;;;;;;;-2.77;96.73;102155.34;5034106;28;20040;-66
2023/02/15 06:03:51;;;;;;;99.68;42.72;;;;;;;-2.72;96.22;102161.44;5034233;28;20037;-66
2023/02/15 06:06:17;;;;;;;103.18;44.58;;;;;;;-2.75;96.69;102153.56;5039487;28;20387;-66
2023/02/15 06:08:42;;;;;;;106.00;45.85;;;;;;;-2.73;96.78;102168.47;5031807;28;20038;-66
2023/02/15 06:11:08;;;;;;;105.55;44.35;;;;;;;-2.74;97.21;102156.19;5043497;28;20040;-66
2023/02/15 06:13:34;;;;;;;105.68;44.30;;;;;;;-2.74;97.54;102156.19;5037243;28;20044;-66
2023/02/15 06:15:59;;;;;;;98.20;43.92;;;;;;;-2.63;97.92;102171.91;5031120;28;20040;-72
2023/02/15 06:18:25;;;;;;;97.22;44.30;;;;;;;-2.69;97.73;102164.06;5037045;28;20033;-72
2023/02/15 06:20:51;;;;;;;100.10;44.00;;;;;;;-2.60;98.42;102180.66;5032817;28;20026;-72
2023/02/15 06:23:16;;;;;;;101.30;44.00;;;;;;;-2.58;97.61;102173.63;5036293;28;20033;-72
2023/02/15 06:25:42;;;;;;;101.35;44.35;;;;;;;-2.53;98.58;102176.22;5032998;28;20464;-73
2023/02/15 06:28:08;;;;;;;106.15;43.67;;;;;;;-2.53;98.65;102171.88;5030033;28;20033;-73
2023/02/15 06:30:33;;;;;;;109.13;46.05;;;;;;;-2.49;99.30;102176.22;5029580;28;20067;-73
2023/02/15 06:32:58;;;;;;;101.13;44.47;;;;;;;-2.43;99.53;102180.56;5039525;28;20029;-72
2023/02/15 06:35:24;;;;;;;103.82;45.70;;;;;;;-2.41;99.92;102177.03;5039736;28;20087;-72
2023/02/15 06:37:50;;;;;;;106.82;45.10;;;;;;;-2.35;99.56;102184.03;5035324;28;20567;-72
2023/02/15 06:40:16;;;;;;;103.28;44.28;;;;;;;-2.35;100.00;102174.38;5034623;28;20037;-73
2023/02/15 06:42:42;;;;;;;114.78;47.70;;;;;;;-2.29;100.00;102173.47;5031184;28;20083;-72
2023/02/15 06:45:08;;;;;;;116.25;48.38;;;;;;;-2.17;100.00;102183.91;5029224;28;20040;-72
2023/02/15 06:47:34;;;;;;;111.30;45.92;;;;;;;-2.17;100.00;102178.66;5032348;28;20059;-73
2023/02/15 06:50:00;;;;;;;103.45;46.50;;;;;;;-2.09;100.00;102182.13;5024346;28;20670;-72
2023/02/15 06:52:25;;;;;;;120.50;49.90;;;;;;;-2.02;100.00;102189.06;5037635;28;20025;-73
2023/02/15 06:54:51;;;;;;;130.90;53.97;;;;;;;-2.02;100.00;102175.03;5033736;28;20033;-72
2023/02/15 06:57:16;;;;;;;123.13;52.28;;;;;;;-1.86;100.00;102195.09;5031459;28;20504;-73
2023/02/15 06:59:42;;;;;;;132.38;56.80;;;;;;;-1.83;100.00;102182.78;5037200;28;20479;-73
2023/02/15 07:02:11;;;;;;;131.18;56.65;;;;;;;-1.77;100.00;102179.25;5043241;28;20033;-73
2023/02/15 07:04:36;;;;;;;127.88;56.17;;;;;;;-1.65;100.00;102192.31;5036735;28;20033;-72
2023/02/15 07:07:02;;;;;;;126.63;53.53;;;;;;;-1.60;100.00;102186.09;5037846;28;20030;-73
2023/02/15 07:09:27;;;;;;;128.15;52.50;;;;;;;-1.46;100.00;102191.22;5035330;28;20049;-73
2023/02/15 07:14:37;;;;;;;111.82;48.40;;;;;;;-1.24;100.00;102200.66;5035978;28;20118;-73
2023/02/15 07:17:02;;;;;;;110.05;50.08;;;;;;;-1.20;100.00;102181.31;5039084;28;20033;-73
2023/02/15 07:19:28;;;;;;;111.30;50.40;;;;;;;-1.08;100.00;102194.38;5034754;28;20475;-72
2023/02/15 07:21:53;;;;;;;105.78;49.60;;;;;;;-1.03;100.00;102184.69;5029967;28;20059;-74
2023/02/15 07:24:18;;;;;;;111.45;50.42;;;;;;;-0.93;100.00;102189.78;5032628;28;20120;-73
2023/02/15 07:26:44;;;;;;;108.55;48.80;;;;;;;-0.83;100.00;102186.19;5031336;28;20040;-73
2023/02/15 07:29:09;;;;;;;101.88;46.55;;;;;;;-0.72;100.00;102178.16;5039337;28;20072;-73
2023/02/15 07:31:35;;;;;;;105.20;50.65;;;;;;;-0.65;100.00;102172.78;5031624;28;20464;-73
2023/02/15 07:34:00;;;;;;;108.30;50.72;;;;;;;-0.48;100.00;102176.06;5046981;28;20025;-72
2023/02/15 07:36:26;;;;;;;109.43;52.83;;;;;;;-0.33;100.00;102189.06;5035312;28;20471;-72
2023/02/15 07:38:51;;;;;;;113.18;53.80;;;;;;;-0.20;100.00;102185.34;5036290;28;20106;-73
2023/02/15 07:41:17;;;;;;;115.43;53.92;;;;;;;-0.13;100.00;102173.81;5041176;28;20423;-73
2023/02/15 07:43:44;;;;;;;100.55;49.38;;;;;;;0.12;100.00;102186.66;5036160;28;20075;-73
2023/02/15 07:46:14;;;;;;;120.47;56.58;;;;;;;0.32;100.00;102197.75;5041703;28;20382;-74
2023/02/15 07:48:41;;;;;;;113.95;54.05;;;;;;;0.46;100.00;102190.47;5035047;28;20093;-74
2023/02/15 07:51:08;;;;;;;109.15;53.25;;;;;;;0.62;100.00;102190.19;5039437;28;20810;-74
2023/02/15 07:53:35;;;;;;;112.97;55.60;;;;;;;0.72;100.00;102183.84;5031626;28;20040;-72
2023/02/15 07:56:03;;;;;;;112.60;55.33;;;;;;;0.85;100.00;102172.16;5040436;28;20399;-72
2023/02/15 08:01:14;;;;;;;115.47;55.53;;;;;;;1.24;100.00;102171.41;5038234;28;20119;-74
2023/02/15 08:03:40;;;;;;;110.38;55.45;;;;;;;1.32;100.00;102156.25;5041713;28;20043;-74
2023/02/15 08:06:06;;;;;;;122.90;57.90;;;;;;;1.55;100.00;102167.19;5038786;28;20033;-74
2023/02/15 08:08:34;;;;;;;115.72;57.55;;;;;;;1.74;100.00;102165.88;5035773;28;20489;-73
2023/02/15 08:13:54;;;;;;;108.10;54.80;;;;;;;2.17;100.00;102161.34;5037059;28;20396;-73
2023/02/15 08:16:43;;;;;;;115.60;57.10;;;;;;;2.41;100.00;102161.66;5037871;28;20493;-74
2023/02/15 08:19:14;;;;;;;106.40;55.45;;;;;;;2.68;100.00;102163.59;5036472;28;20021;-74
2023/02/15 08:21:48;;;;;;;111.07;53.97;;;;;;;2.85;100.00;102159.59;5029153;28;20467;-74
2023/02/15 08:24:16;;;;;;;108.80;52.05;;;;;;;3.03;100.00;102152.94;5034226;28;20033;-74
2023/02/15 08:26:42;;;;;;;98.07;50.78;;;;;;;3.23;100.00;102163.84;5036270;28;20559;-74
2023/02/15 08:29:08;;;;;;;95.68;50.63;;;;;;;3.33;100.00;102154.69;5028322;28;20083;-67
2023/02/15 08:31:35;;;;;;;96.78;46.20;;;;;;;3.48;100.00;102154.25;5039155;28;20056;-67
2023/02/15 08:34:01;;;;;;;78.05;41.72;;;;;;;3.61;100.00;102158.28;5039809;28;20033;-67
2023/02/15 08:36:29;;;;;;;71.38;38.75;;;;;;;3.73;100.00;102150.81;5038200;28;20035;-67
2023/02/15 08:38:57;;;;;;;69.78;38.95;;;;;;;3.84;100.00;102146.03;5031027;28;20377;-67
2023/02/15 08:41:26;;;;;;;66.75;35.40;;;;;;;4.01;99.29;102142.84;5037240;28;20029;-73
2023/02/15 08:43:53;;;;;;;66.78;34.83;;;;;;;4.18;98.20;102145.81;5039604;28;20085;-73
2023/02/15 08:46:20;;;;;;;65.47;35.47;;;;;;;4.26;97.04;102151.78;5044397;28;20505;-74
2023/02/15 08:48:46;;;;;;;66.07;34.55;;;;;;;4.35;96.44;102143.47;5034959;28;20032;-73
2023/02/15 08:51:19;;;;;;;70.57;38.03;;;;;;;4.44;95.53;102141.41;5038829;28;20128;-74
2023/02/15 08:53:50;;;;;;;77.38;36.45;;;;;;;4.55;94.84;102143.72;5031374;28;20090;-73
2023/02/15 08:56:18;;;;;;;65.90;35.28;;;;;;;4.69;93.55;102137.00;5039836;28;20025;-67
2023/02/15 08:58:44;;;;;;;65.60;36.22;;;;;;;4.73;93.08;102132.44;5034630;28;20041;-67
2023/02/15 09:01:17;;;;;;;62.88;35.05;;;;;;;4.86;92.84;102133.72;5035520;28;20124;-67
2023/02/15 09:03:44;;;;;;;56.50;32.00;;;;;;;4.93;92.36;102124.59;5028404;28;20152;-67
2023/02/15 09:06:10;;;;;;;65.93;33.97;;;;;;;5.05;91.84;102141.91;5030593;28;20040;-67
2023/02/15 09:08:36;;;;;;;59.38;32.95;;;;;;;4.96;91.79;102113.00;5031997;28;20061;-67
2023/02/15 09:11:23;;;;;;;52.80;30.45;;;;;;;5.03;91.05;102119.84;5034872;28;20032;-67
2023/02/15 09:13:58;;;;;;;54.45;30.40;;;;;;;5.17;89.34;102129.06;5035573;28;20033;-67
2023/02/15 09:16:26;;;;;;;53.90;29.30;;;;;;;5.31;88.87;102140.03;5031907;28;20052;-67
2023/02/15 09:18:52;;;;;;;51.35;27.92;;;;;;;5.26;88.01;102122.53;5038958;28;20044;-67
2023/02/15 09:21:21;;;;;;;46.78;27.58;;;;;;;5.42;87.68;102134.31;5034959;28;20055;-73
2023/02/15 09:23:49;;;;;;;53.47;30.83;;;;;;;5.48;87.21;102132.28;5035457;28;20036;-73
2023/02/15 09:26:17;;;;;;;50.22;28.52;;;;;;;5.56;86.88;102134.66;5035628;28;20104;-73
2023/02/15 09:28:43;;;;;;;53.25;30.05;;;;;;;5.56;86.15;102121.34;5036743;28;20033;-74
2023/02/15 09:31:10;;;;;;;51.55;29.05;;;;;;;5.69;86.10;102133.25;5039566;28;20399;-74
2023/02/15 09:33:37;;;;;;;53.45;28.73;;;;;;;5.74;85.32;102123.31;5038034;28;20033;-74
2023/02/15 09:36:04;;;;;;;50.30;29.50;;;;;;;5.85;84.85;102129.97;5030098;28;20096;-73
2023/02/15 09:38:30;;;;;;;47.90;28.42;;;;;;;5.91;84.74;102120.88;5044752;28;20029;-74
2023/02/15 09:41:18;;;;;;;46.60;28.52;;;;;;;6.04;84.14;102128.31;5038264;28;20056;-74
2023/02/15 09:44:00;;;;;;;52.78;29.98;;;;;;;6.14;83.49;102124.34;5035322;28;20082;-73
2023/02/15 09:46:57;;;;;;;48.67;27.48;;;;;;;6.34;82.89;102127.06;5041066;28;20056;-74
2023/02/15 09:49:53;;;;;;;46.67;28.33;;;;;;;6.53;81.20;102130.69;5031632;28;20029;-74
2023/02/15 09:52:43;;;;;;;51.75;29.80;;;;;;;6.71;80.35;102123.69;5048505;28;20100;-73
2023/02/15 09:55:31;;;;;;;51.88;30.70;;;;;;;6.92;78.68;102110.28;5036333;28;20484;-74
2023/02/15 09:57:56;;;;;;;52.55;29.52;;;;;;;7.24;77.41;102116.84;5027528;28;20070;-75
2023/02/15 10:00:44;;;;;;;51.88;31.08;;;;;;;7.66;75.99;102108.63;5030410;28;20025;-74
2023/02/15 10:03:21;;;;;;;51.47;29.27;;;;;;;8.32;73.21;102100.06;5039722;28;20484;-75
2023/02/15 10:05:59;;;;;;;48.88;29.38;;;;;;;9.77;66.99;102106.47;5031866;28;20472;-74
2023/02/15 10:08:58;;;;;;;45.92;28.90;;;;;;;11.53;60.14;102104.69;5028533;28;20096;-74
2023/02/15 10:11:42;;;;;;;47.10;29.45;;;;;;;13.01;53.74;102099.19;5034308;28;20629;-74
2023/02/15 10:14:27;;;;;;;43.67;28.45;;;;;;;13.73;51.23;102084.13;5036247;28;20347;-73
2023/02/15 10:17:10;;;;;;;35.75;25.23;;;;;;;14.40;48.48;102089.84;5038025;28;20094;-75
2023/02/15 10:19:39;;;;;;;35.78;25.92;;;;;;;14.54;47.95;102096.91;5032687;28;20029;-75
2023/02/15 10:22:18;;;;;;;37.17;25.48;;;;;;;14.58;46.79;102085.75;5037991;28;20092;-74
2023/02/15 10:25:11;;;;;;;36.60;25.17;;;;;;;14.20;47.57;102090.44;5033080;28;20030;-75
2023/02/15 10:27:46;;;;;;;38.97;26.55;;;;;;;13.74;48.46;102092.97;5037392;28;20559;-75
2023/02/15 10:30:14;;;;;;;35.72;25.60;;;;;;;13.30;50.00;102079.16;5033931;28;22632;-74
2023/02/15 10:32:59;;;;;;;37.35;25.70;;;;;;;12.77;50.79;102086.53;5033248;28;20029;-74
2023/02/15 10:35:52;;;;;;;36.20;23.92;;;;;;;12.25;52.05;102088.34;5038418;28;20048;-75
2023/02/15 10:38:43;;;;;;;42.70;28.67;;;;;;;11.85;53.59;102082.03;5034702;28;20031;-75
2023/02/15 10:41:56;;;;;;;43.08;28.98;;;;;;;11.36;55.42;102076.19;5039835;28;20051;-75
2023/02/15 10:44:27;;;;;;;42.42;28.15;;;;;;;11.05;57.12;102080.91;5014119;28;20033;-75
2023/02/15 10:47:18;;;;;;;40.67;27.35;;;;;;;10.75;57.58;102074.75;5038274;28;20132;-75
2023/02/15 10:49:59;;;;;;;47.03;29.60;;;;;;;10.58;58.91;102082.94;5046207;28;20871;-75
2023/02/15 10:52:46;;;;;;;42.92;28.48;;;;;;;10.39;59.92;102083.19;5035533;28;20104;-75
2023/02/15 10:55:33;;;;;;;42.58;28.52;;;;;;;10.21;60.23;102070.84;5035508;28;20029;-75
2023/02/15 10:58:11;;;;;;;46.88;28.58;;;;;;;10.06;60.67;102074.41;5029862;28;20132;-75
2023/02/15 11:00:39;;;;;;;40.88;26.75;;;;;;;9.93;61.64;102070.66;5051317;28;20529;-75
2023/02/15 11:03:29;;;;;;;39.63;26.83;;;;;;;9.75;61.75;102057.47;5034780;28;20062;-73
2023/02/15 11:05:57;;;;;;;40.92;25.05;;;;;;;9.69;61.65;102065.84;5039268;28;20107;-74
2023/02/15 11:08:26;;;;;;;41.17;25.02;;;;;;;9.52;62.01;102040.03;5034259;28;20056;-74
2023/02/15 11:10:58;;;;;;;38.85;26.50;;;;;;;9.50;62.80;102059.78;5037022;28;20037;-74
2023/02/15 11:13:28;;;;;;;39.28;26.42;;;;;;;9.39;62.97;102046.13;5030464;28;20049;-74
2023/02/15 11:16:17;;;;;;;40.70;27.25;;;;;;;9.32;63.00;102045.59;5038874;28;20036;-75
2023/02/15 11:18:53;;;;;;;42.92;25.65;;;;;;;9.31;62.93;102048.38;5033806;28;20458;-75
2023/02/15 11:21:27;;;;;;;41.35;27.63;;;;;;;9.25;63.63;102041.53;5041182;28;20024;-74
2023/02/15 11:23:54;;;;;;;42.75;26.48;;;;;;;9.12;63.25;102029.75;5031184;28;20112;-74
2023/02/15 11:26:32;;;;;;;44.83;27.45;;;;;;;9.15;64.33;102037.63;5031409;28;20486;-74
2023/02/15 11:29:14;;;;;;;43.28;27.45;;;;;;;9.13;64.22;102039.53;5045237;28;20047;-73
2023/02/15 11:31:46;;;;;;;43.38;28.13;;;;;;;9.11;64.86;102031.59;5036687;28;20037;-75
2023/02/15 11:34:33;;;;;;;43.72;28.63;;;;;;;9.04;65.43;102021.31;5042778;28;20029;-74
2023/02/15 11:37:05;;;;;;;45.47;29.42;;;;;;;9.03;65.24;102006.19;5033153;28;20103;-75
2023/02/15 11:39:33;;;;;;;51.63;30.17;;;;;;;9.12;65.26;102019.06;5034652;28;20059;-74
2023/02/15 11:42:07;;;;;;;45.80;29.30;;;;;;;9.06;65.01;101998.84;5030572;28;20033;-75
2023/02/15 11:44:39;;;;;;;;;;;;;;;9.13;64.62;102004.75;5029059;28;20442;-74
2023/02/15 11:47:11;;;;;;;48.00;29.65;;;;;;;9.10;65.02;102000.41;5052462;28;19916;-75
2023/02/15 11:49:37;;;;;;;44.08;29.02;;;;;;;9.07;64.77;101991.69;5037972;28;20022;-75
2023/02/15 11:52:06;;;;;;;48.20;29.80;;;;;;;9.05;65.26;101986.44;5035373;28;20049;-74
2023/02/15 11:54:39;;;;;;;48.78;30.95;;;;;;;9.16;65.09;101997.38;5034762;28;20037;-75
2023/02/15 11:57:31;;;;;;;49.83;31.88;;;;;;;9.12;64.74;101992.28;5032608;28;20734;-75
2023/02/15 12:00:09;;;;;;;46.00;29.27;;;;;;;9.13;64.60;101994.03;5038104;28;20036;-75